createdAt,value
2017-10-07T00:01:00.168Z,4.47
2017-10-07T00:03:26.844Z,5.28
2017-10-07T00:05:53.547Z,5.62
2017-10-07T00:08:20.216Z,5.07
2017-10-07T00:10:46.879Z,5.35
2017-10-07T00:13:13.539Z,4.95
2017-10-07T00:15:40.208Z,4.87
2017-10-07T00:18:06.903Z,4.68
2017-10-07T00:20:33.568Z,5.28
2017-10-07T00:23:00.260Z,5.45
2017-10-07T00:25:26.924Z,4.82
2017-10-07T00:27:53.590Z,6.45
2017-10-07T00:30:20.260Z,5.50
2017-10-07T00:32:46.923Z,4.40
2017-10-07T00:35:13.592Z,5.90
2017-10-07T00:37:40.268Z,5.60
2017-10-07T00:40:06.940Z,6.12
2017-10-07T00:42:33.612Z,6.87
2017-10-07T00:45:00.283Z,7.12
2017-10-07T00:47:26.952Z,6.00
2017-10-07T00:49:53.639Z,6.68
2017-10-07T00:52:20.307Z,6.03
2017-10-07T00:54:46.991Z,5.93
2017-10-07T00:57:13.659Z,6.20
2017-10-07T00:59:40.352Z,7.07
2017-10-07T01:02:07.017Z,6.05
2017-10-07T01:04:33.742Z,6.30
2017-10-07T01:07:00.650Z,6.12
2017-10-07T01:09:27.312Z,5.95
2017-10-07T01:11:53.980Z,6.50
2017-10-07T01:14:20.648Z,8.50
2017-10-07T01:16:47.320Z,6.43
2017-10-07T01:19:13.984Z,7.80
2017-10-07T01:21:40.652Z,7.68
2017-10-07T01:24:07.316Z,6.60
2017-10-07T01:26:34.010Z,6.40
2017-10-07T01:29:00.727Z,7.22
2017-10-07T01:31:27.420Z,6.93
2017-10-07T01:33:54.092Z,6.95
2017-10-07T01:36:20.780Z,8.50
2017-10-07T01:38:47.443Z,7.10
2017-10-07T01:41:14.103Z,8.00
2017-10-07T01:43:40.767Z,6.68
2017-10-07T01:46:07.435Z,8.48
2017-10-07T01:48:34.117Z,7.12
2017-10-07T01:51:00.788Z,7.40
2017-10-07T01:53:27.476Z,7.82
2017-10-07T01:55:54.140Z,7.68
2017-10-07T01:58:20.833Z,7.07
2017-10-07T02:00:47.499Z,6.28
2017-10-07T02:03:14.163Z,5.55
2017-10-07T02:05:40.828Z,5.70
2017-10-07T02:08:07.491Z,6.43
2017-10-07T02:10:34.146Z,5.50
2017-10-07T02:13:00.815Z,6.00
2017-10-07T02:15:27.480Z,6.30
2017-10-07T02:17:54.147Z,6.55
2017-10-07T02:20:20.844Z,6.15
2017-10-07T02:22:47.508Z,6.00
2017-10-07T02:25:14.171Z,6.50
2017-10-07T02:27:40.827Z,5.65
2017-10-07T02:30:07.492Z,8.45
2017-10-07T02:32:34.163Z,6.30
2017-10-07T02:35:00.828Z,8.85
2017-10-07T02:37:27.491Z,6.85
2017-10-07T02:39:54.160Z,7.47
2017-10-07T02:42:20.824Z,6.45
2017-10-07T02:44:47.495Z,7.15
2017-10-07T02:47:14.159Z,6.78
2017-10-07T02:49:40.815Z,7.07
2017-10-07T02:52:07.507Z,8.50
2017-10-07T02:54:34.167Z,7.45
2017-10-07T02:57:00.832Z,7.47
2017-10-07T02:59:27.516Z,6.57
2017-10-07T03:01:54.196Z,6.45
2017-10-07T03:04:20.895Z,5.78
2017-10-07T03:06:47.555Z,6.37
2017-10-07T03:09:14.247Z,7.03
2017-10-07T03:11:40.908Z,6.43
2017-10-07T03:14:07.567Z,5.43
2017-10-07T03:16:34.228Z,5.15
2017-10-07T03:19:00.883Z,5.37
2017-10-07T03:21:27.572Z,5.20
2017-10-07T03:23:54.235Z,5.35
2017-10-07T03:26:20.924Z,5.05
2017-10-07T03:28:47.588Z,5.65
2017-10-07T03:31:14.275Z,4.93
2017-10-07T03:33:40.935Z,4.82
2017-10-07T03:36:07.625Z,4.57
2017-10-07T03:38:34.283Z,5.45
2017-10-07T03:41:00.967Z,6.45
2017-10-07T03:43:27.635Z,4.85
2017-10-07T03:45:54.337Z,5.30
2017-10-07T03:48:21.003Z,5.93
2017-10-07T03:50:47.667Z,6.22
2017-10-07T03:53:14.327Z,5.32
2017-10-07T03:55:41.003Z,5.62
2017-10-07T03:58:07.683Z,6.53
2017-10-07T04:00:34.348Z,5.30
2017-10-07T04:03:01.035Z,5.25
2017-10-07T04:05:27.695Z,5.18
2017-10-07T04:07:54.371Z,5.32
2017-10-07T04:10:21.036Z,5.87
2017-10-07T04:12:47.719Z,5.75
2017-10-07T04:15:14.374Z,6.90
2017-10-07T04:17:41.068Z,5.25
2017-10-07T04:20:07.727Z,5.12
2017-10-07T04:22:34.386Z,5.28
2017-10-07T04:25:01.044Z,4.50
2017-10-07T04:27:27.702Z,4.60
2017-10-07T04:29:54.359Z,4.55
2017-10-07T04:32:21.020Z,4.62
2017-10-07T04:34:47.676Z,4.50
2017-10-07T04:37:14.331Z,4.80
2017-10-07T04:39:40.992Z,4.55
2017-10-07T04:42:07.660Z,4.22
2017-10-07T04:44:34.349Z,4.78
2017-10-07T04:47:01.012Z,4.18
2017-10-07T04:49:27.699Z,4.40
2017-10-07T04:51:54.360Z,3.90
2017-10-07T04:54:21.044Z,3.70
2017-10-07T04:56:47.703Z,3.62
2017-10-07T04:59:14.395Z,3.60
2017-10-07T05:01:41.055Z,5.05
2017-10-07T05:04:07.725Z,4.30
2017-10-07T05:06:34.383Z,3.37
2017-10-07T05:09:01.044Z,3.20
2017-10-07T05:11:27.703Z,3.15
2017-10-07T05:13:54.359Z,3.30
2017-10-07T05:16:21.021Z,3.30
2017-10-07T05:18:47.687Z,3.33
2017-10-07T05:21:14.363Z,3.22
2017-10-07T05:23:41.020Z,2.80
2017-10-07T05:26:07.699Z,3.20
2017-10-07T05:28:34.351Z,4.20
2017-10-07T05:31:01.052Z,2.60
2017-10-07T05:33:27.714Z,2.70
2017-10-07T05:35:54.379Z,2.83
2017-10-07T05:38:21.039Z,3.28
2017-10-07T05:40:47.691Z,2.83
2017-10-07T05:43:14.348Z,3.40
2017-10-07T05:45:41.011Z,3.40
2017-10-07T05:48:07.671Z,3.47
2017-10-07T05:50:34.332Z,4.00
2017-10-07T05:53:01.028Z,4.30
2017-10-07T05:55:27.691Z,4.12
2017-10-07T05:57:54.372Z,4.68
2017-10-07T06:00:21.032Z,4.85
2017-10-07T06:02:47.713Z,4.45
2017-10-07T06:05:14.371Z,5.70
2017-10-07T06:07:41.043Z,6.43
2017-10-07T06:10:07.708Z,5.62
2017-10-07T06:12:34.371Z,5.85
2017-10-07T06:15:01.029Z,5.47
2017-10-07T06:17:27.691Z,6.62
2017-10-07T06:19:54.355Z,6.95
2017-10-07T06:22:21.016Z,6.20
2017-10-07T06:24:47.715Z,6.40
2017-10-07T06:27:14.375Z,5.93
2017-10-07T06:29:41.041Z,7.20
2017-10-07T06:32:07.703Z,5.87
2017-10-07T06:34:34.363Z,7.30
2017-10-07T06:37:01.028Z,6.10
2017-10-07T06:39:27.691Z,6.30
2017-10-07T06:41:54.355Z,6.25
2017-10-07T06:44:21.015Z,6.62
2017-10-07T06:46:47.856Z,6.97
2017-10-07T06:49:14.517Z,6.62
2017-10-07T06:51:41.171Z,7.30
2017-10-07T06:54:07.835Z,6.90
2017-10-07T06:56:34.499Z,6.07
2017-10-07T06:59:01.188Z,6.28
2017-10-07T07:01:27.903Z,6.55
2017-10-07T07:03:54.624Z,6.15
2017-10-07T07:06:21.283Z,5.82
2017-10-07T07:08:47.972Z,6.32
2017-10-07T07:11:14.623Z,6.07
2017-10-07T07:13:41.316Z,6.85
2017-10-07T07:16:07.979Z,6.43
2017-10-07T07:18:34.643Z,6.18
2017-10-07T07:21:01.417Z,5.95
2017-10-07T07:23:28.080Z,6.70
2017-10-07T07:25:54.780Z,6.60
2017-10-07T07:28:21.455Z,7.25
2017-10-07T07:30:48.139Z,6.20
2017-10-07T07:33:14.808Z,9.15
2017-10-07T07:35:41.499Z,6.82
2017-10-07T07:38:08.159Z,5.80
2017-10-07T07:40:34.855Z,6.20
2017-10-07T07:43:01.540Z,6.50
2017-10-07T07:45:28.199Z,7.35
2017-10-07T07:47:54.860Z,6.15
2017-10-07T07:50:21.528Z,7.50
2017-10-07T07:52:48.202Z,7.10
2017-10-07T07:55:14.907Z,7.75
2017-10-07T07:57:41.595Z,7.15
2017-10-07T08:00:08.260Z,7.72
2017-10-07T08:02:34.962Z,7.50
2017-10-07T08:05:01.655Z,7.15
2017-10-07T08:07:28.341Z,7.53
2017-10-07T08:09:55.003Z,7.78
2017-10-07T08:12:21.671Z,7.18
2017-10-07T08:14:48.344Z,7.78
2017-10-07T08:17:15.009Z,8.52
2017-10-07T08:19:41.673Z,7.60
2017-10-07T08:22:08.343Z,8.00
2017-10-07T08:24:35.008Z,8.73
2017-10-07T08:27:01.673Z,9.70
2017-10-07T08:29:28.368Z,8.45
2017-10-07T08:31:55.044Z,9.10
2017-10-07T08:34:21.747Z,8.18
2017-10-07T08:36:48.404Z,7.85
2017-10-07T08:39:15.068Z,8.05
2017-10-07T08:41:41.818Z,8.85
2017-10-07T08:44:08.474Z,9.13
2017-10-07T08:46:35.135Z,8.52
2017-10-07T08:49:01.815Z,11.30
2017-10-07T08:51:28.479Z,8.85
2017-10-07T08:53:55.144Z,9.43
2017-10-07T08:56:21.814Z,8.05
2017-10-07T08:58:48.483Z,10.45
2017-10-07T09:01:15.163Z,9.80
2017-10-07T09:03:41.823Z,9.38
2017-10-07T09:06:08.500Z,10.10
2017-10-07T09:08:35.179Z,9.95
2017-10-07T09:11:01.856Z,10.23
2017-10-07T09:13:28.530Z,9.63
2017-10-07T09:15:55.244Z,10.10
2017-10-07T09:18:21.911Z,9.68
2017-10-07T09:20:48.599Z,9.00
2017-10-07T09:23:15.276Z,8.80
2017-10-07T09:25:41.960Z,9.65
2017-10-07T09:28:08.659Z,9.10
2017-10-07T09:30:35.323Z,9.10
2017-10-07T09:33:02.008Z,8.80
2017-10-07T09:35:28.687Z,8.88
2017-10-07T09:37:55.375Z,8.65
2017-10-07T09:40:22.035Z,9.70
2017-10-07T09:42:48.725Z,8.68
2017-10-07T09:45:15.387Z,9.65
2017-10-07T09:47:42.092Z,9.00
2017-10-07T09:50:08.751Z,9.65
2017-10-07T09:52:35.464Z,8.30
2017-10-07T09:55:02.136Z,7.55
2017-10-07T09:57:28.795Z,7.25
2017-10-07T09:59:55.483Z,7.85
2017-10-07T10:02:22.156Z,8.40
2017-10-07T10:04:48.849Z,6.60
2017-10-07T10:07:16.004Z,7.07
2017-10-07T10:09:42.698Z,6.62
2017-10-07T10:12:09.363Z,6.97
2017-10-07T10:14:36.055Z,6.75
2017-10-07T10:17:02.716Z,7.12
2017-10-07T10:19:29.420Z,6.82
2017-10-07T10:21:56.095Z,7.20
2017-10-07T10:24:22.755Z,6.68
2017-10-07T10:26:49.420Z,7.50
2017-10-07T10:29:16.084Z,7.40
2017-10-07T10:31:42.776Z,6.28
2017-10-07T10:34:09.443Z,6.80
2017-10-07T10:36:36.144Z,6.50
2017-10-07T10:39:02.809Z,6.85
2017-10-07T10:41:29.516Z,5.90
2017-10-07T10:43:56.180Z,5.97
2017-10-07T10:46:22.847Z,5.68
2017-10-07T10:48:49.508Z,6.18
2017-10-07T10:51:16.171Z,5.80
2017-10-07T10:53:42.832Z,7.37
2017-10-07T10:56:09.492Z,6.03
2017-10-07T10:58:36.151Z,6.00
2017-10-07T11:01:02.817Z,6.03
2017-10-07T11:03:29.485Z,6.62
2017-10-07T11:05:56.155Z,7.20
2017-10-07T11:08:22.842Z,6.20
2017-10-07T11:10:49.503Z,5.90
2017-10-07T11:13:16.194Z,6.45
2017-10-07T11:15:42.863Z,6.40
2017-10-07T11:18:09.561Z,6.72
2017-10-07T11:20:36.225Z,5.82
2017-10-07T11:23:02.895Z,5.78
2017-10-07T11:25:29.551Z,4.55
2017-10-07T11:27:56.216Z,4.45
2017-10-07T11:30:22.881Z,4.50
2017-10-07T11:32:49.543Z,5.22
2017-10-07T11:35:16.232Z,4.97
2017-10-07T11:37:42.900Z,6.32
2017-10-07T11:40:09.587Z,6.68
2017-10-07T11:42:36.260Z,6.10
2017-10-07T11:45:02.963Z,5.95
2017-10-07T11:47:29.627Z,5.18
2017-10-07T11:49:56.287Z,6.05
2017-10-07T11:52:22.948Z,5.03
2017-10-07T11:54:49.608Z,5.43
2017-10-07T11:57:16.298Z,4.78
2017-10-07T11:59:42.955Z,5.00
2017-10-07T12:02:09.635Z,5.60
2017-10-07T12:04:36.295Z,5.40
2017-10-07T12:07:02.979Z,5.65
2017-10-07T12:09:29.640Z,5.68
2017-10-07T12:11:56.327Z,5.30
2017-10-07T12:14:22.996Z,6.68
2017-10-07T12:16:49.692Z,5.90
2017-10-07T12:19:16.421Z,7.15
2017-10-07T12:21:43.084Z,5.78
2017-10-07T12:24:09.739Z,5.07
2017-10-07T12:26:36.407Z,6.15
2017-10-07T12:29:03.064Z,5.75
2017-10-07T12:31:29.727Z,5.45
2017-10-07T12:33:56.384Z,5.57
2017-10-07T12:36:23.092Z,5.20
2017-10-07T12:38:49.757Z,5.93
2017-10-07T12:41:16.419Z,6.15
2017-10-07T12:43:43.074Z,5.97
2017-10-07T12:46:09.736Z,6.20
2017-10-07T12:48:36.399Z,6.95
2017-10-07T12:51:03.060Z,6.65
2017-10-07T12:53:29.743Z,6.68
2017-10-07T12:55:56.398Z,6.12
2017-10-07T12:58:23.092Z,5.53
2017-10-07T13:00:49.752Z,5.57
2017-10-07T13:03:16.412Z,5.50
2017-10-07T13:05:43.083Z,4.10
2017-10-07T13:08:09.743Z,4.62
2017-10-07T13:10:36.416Z,4.05
2017-10-07T13:13:03.079Z,3.35
2017-10-07T13:15:29.748Z,4.40
2017-10-07T13:17:56.416Z,3.95
2017-10-07T13:20:23.084Z,3.60
2017-10-07T13:22:49.744Z,3.53
2017-10-07T13:25:16.423Z,4.30
2017-10-07T13:27:43.087Z,4.03
2017-10-07T13:30:09.783Z,3.83
2017-10-07T13:32:36.448Z,3.30
2017-10-07T13:35:03.113Z,3.30
2017-10-07T13:37:29.771Z,3.42
2017-10-07T13:39:56.444Z,3.50
2017-10-07T13:42:23.104Z,3.00
2017-10-07T13:44:49.767Z,3.15
2017-10-07T13:47:16.433Z,2.90
2017-10-07T13:49:43.091Z,3.08
2017-10-07T13:52:09.775Z,2.90
2017-10-07T13:54:36.447Z,3.30
2017-10-07T13:57:03.122Z,2.80
2017-10-07T13:59:29.791Z,2.50
2017-10-07T14:01:56.475Z,2.83
2017-10-07T14:04:23.194Z,2.40
2017-10-07T14:06:49.851Z,2.70
2017-10-07T14:09:16.511Z,2.75
2017-10-07T14:11:43.171Z,3.00
2017-10-07T14:14:09.831Z,2.58
2017-10-07T14:16:36.500Z,2.53
2017-10-07T14:19:03.177Z,2.78
2017-10-07T14:21:29.842Z,2.65
2017-10-07T14:23:56.536Z,3.08
2017-10-07T14:26:23.200Z,3.20
2017-10-07T14:28:49.907Z,2.70
2017-10-07T14:31:16.564Z,2.80
2017-10-07T14:33:43.227Z,3.15
2017-10-07T14:36:09.887Z,3.05
2017-10-07T14:38:36.548Z,3.30
2017-10-07T14:41:03.211Z,3.40
2017-10-07T14:43:29.876Z,3.17
2017-10-07T14:45:56.543Z,4.45
2017-10-07T14:48:23.213Z,3.17
2017-10-07T14:50:49.896Z,3.35
2017-10-07T14:53:16.564Z,3.15
2017-10-07T14:55:43.255Z,3.35
2017-10-07T14:58:09.919Z,3.00
2017-10-07T15:00:36.602Z,3.37
2017-10-07T15:03:03.268Z,3.33
2017-10-07T15:05:29.971Z,3.90
2017-10-07T15:07:56.632Z,3.42
2017-10-07T15:10:23.287Z,3.20
2017-10-07T15:12:49.944Z,3.70
2017-10-07T15:15:16.602Z,3.28
2017-10-07T15:17:43.260Z,3.70
2017-10-07T15:20:09.919Z,3.40
2017-10-07T15:22:36.579Z,3.55
2017-10-07T15:25:03.232Z,3.62
2017-10-07T15:27:29.915Z,3.40
2017-10-07T15:29:56.580Z,3.15
2017-10-07T15:32:23.272Z,3.75
2017-10-07T15:34:49.930Z,3.65
2017-10-07T15:37:16.626Z,3.15
2017-10-07T15:39:43.291Z,3.20
2017-10-07T15:42:09.995Z,3.67
2017-10-07T15:44:36.656Z,3.33
2017-10-07T15:47:03.315Z,3.42
2017-10-07T15:49:29.979Z,3.25
2017-10-07T15:51:56.639Z,3.33
2017-10-07T15:54:23.300Z,3.28
2017-10-07T15:56:49.964Z,2.90
2017-10-07T15:59:16.632Z,5.20
2017-10-07T16:01:43.290Z,3.10
2017-10-07T16:04:09.984Z,3.20
2017-10-07T16:06:36.646Z,3.78
2017-10-07T16:09:03.339Z,3.53
2017-10-07T16:11:30.000Z,3.15
2017-10-07T16:19:28.128Z,3.28
2017-10-07T16:30:10.819Z,3.00
2017-10-07T16:32:37.484Z,3.65
2017-10-07T16:35:04.208Z,3.72
2017-10-07T16:37:30.867Z,3.47
2017-10-07T16:42:43.287Z,4.03
2017-10-07T16:45:09.987Z,3.37
2017-10-07T16:47:36.647Z,3.22
2017-10-07T16:52:49.455Z,2.92
2017-10-07T16:58:01.539Z,3.37
2017-10-07T17:03:14.352Z,2.90
2017-10-07T17:05:41.012Z,2.87
2017-10-07T17:08:07.699Z,2.75
2017-10-07T17:10:34.369Z,3.60
2017-10-07T17:13:01.054Z,2.80
2017-10-07T17:18:13.031Z,3.37
2017-10-07T17:28:56.484Z,3.95
2017-10-07T17:47:56.039Z,4.10
2017-10-07T17:53:08.153Z,3.65
2017-10-07T18:01:06.395Z,4.07
2017-10-07T18:11:49.267Z,3.92
2017-10-07T18:17:01.431Z,5.85
2017-10-07T18:19:28.095Z,4.95
2017-10-07T18:24:40.911Z,5.40
2017-10-07T18:32:39.185Z,6.22
2017-10-07T18:35:05.851Z,5.40
2017-10-07T18:43:03.576Z,5.40
2017-10-07T18:48:15.659Z,5.32
2017-10-07T18:56:13.215Z,6.00
2017-10-07T19:04:10.892Z,6.53
2017-10-07T19:06:37.568Z,5.78
2017-10-07T19:09:04.223Z,6.32
2017-10-07T19:22:32.231Z,7.68
2017-10-07T19:24:58.903Z,7.10
2017-10-07T19:43:59.199Z,7.60
2017-10-07T20:13:57.271Z,7.20
2017-10-07T21:23:08.877Z,5.82
2017-10-07T22:17:19.969Z,9.65
2017-10-07T22:20:00.282Z,10.73
2017-10-07T22:25:13.824Z,11.05
2017-10-07T22:30:26.986Z,10.15
2017-10-07T22:46:39.788Z,11.73
2017-10-07T22:49:06.501Z,12.30
2017-10-07T22:54:18.816Z,15.40
2017-10-07T22:56:45.573Z,14.35
2017-10-07T23:01:57.794Z,13.48
2017-10-07T23:04:24.576Z,13.35
2017-10-07T23:09:36.764Z,13.10
2017-10-07T23:14:49.008Z,14.00
2017-10-07T23:20:02.323Z,12.60
2017-10-07T23:22:32.915Z,13.07
2017-10-07T23:24:59.637Z,14.65
